Time;durP1;ratioP1;P1;durP2;ratioP2;P2;SDS_P1;SDS_P2;PMS_P1;PMS_P2;Temp;Humidity;BMP_temperature;BMP_pressure;BME280_temperature;BME280_humidity;BME280_pressure;Samples;Min_cycle;Max_cycle;Signal;HPM_P1;HPM_P2
2023/04/17 00:01:30;;;;;;;46.20;22.67;;;;;;;-144.73;100.00;54498.00;5007707;28;20077;-70
2023/04/17 00:03:56;;;;;;;38.22;22.27;;;;;;;-144.73;100.00;54465.16;5007524;28;20058;-70
2023/04/17 00:06:22;;;;;;;43.65;24.50;;;;;;;-144.73;100.00;54502.13;5007380;28;20098;-70
2023/04/17 00:08:48;;;;;;;43.67;23.67;;;;;;;-144.73;100.00;54502.13;5000811;28;20113;-71
2023/04/17 00:11:14;;;;;;;48.40;24.88;;;;;;;-144.73;100.00;54485.69;5006845;28;20116;-70
2023/04/17 00:13:40;;;;;;;47.08;24.48;;;;;;;-144.73;100.00;54518.53;4990493;28;20025;-70
2023/04/17 00:16:06;;;;;;;50.75;25.23;;;;;;;-144.73;100.00;54506.22;4988941;28;20043;-69
2023/04/17 00:18:31;;;;;;;46.88;23.98;;;;;;;-144.73;100.00;54508.28;5006750;28;20080;-70
2023/04/17 00:20:56;;;;;;;42.15;23.02;;;;;;;-144.73;100.00;54502.13;4989416;28;20046;-71
2023/04/17 00:23:22;;;;;;;57.28;26.58;;;;;;;-144.73;100.00;54485.69;4994149;28;20030;-70
2023/04/17 00:25:47;;;;;;;45.85;24.55;;;;;;;-144.73;100.00;54514.44;4992060;28;20034;-70
2023/04/17 00:28:13;;;;;;;48.40;26.05;;;;;;;-144.73;100.00;54498.00;5007217;28;20028;-70
2023/04/17 00:30:38;;;;;;;52.35;25.58;;;;;;;-144.73;100.00;54510.31;5022457;28;20037;-70
2023/04/17 00:33:03;;;;;;;44.03;25.48;;;;;;;-144.73;100.00;54506.22;5016909;28;20071;-70
2023/04/17 00:35:29;;;;;;;42.80;25.52;;;;;;;-144.73;100.00;54506.22;5009294;28;20111;-70
2023/04/17 00:37:54;;;;;;;53.08;26.65;;;;;;;-144.73;100.00;54508.28;5021141;28;20061;-70
2023/04/17 00:40:19;;;;;;;48.47;25.95;;;;;;;-144.73;100.00;54547.28;5016878;28;20048;-70
2023/04/17 00:42:51;;;;;;;51.75;25.95;;;;;;;-144.73;100.00;54518.53;5015171;28;20022;-70
2023/04/17 00:45:17;;;;;;;52.42;26.55;;;;;;;-144.73;100.00;54493.91;5008132;28;20037;-71
2023/04/17 00:47:42;;;;;;;53.25;27.38;;;;;;;-144.73;100.00;54489.81;4993642;28;20099;-71
2023/04/17 00:50:08;;;;;;;48.60;26.42;;;;;;;-144.73;100.00;54551.38;5015576;28;20039;-70
2023/04/17 00:52:34;;;;;;;53.83;27.70;;;;;;;-144.73;100.00;54498.00;5009402;28;20018;-71
2023/04/17 00:55:00;;;;;;;56.88;27.52;;;;;;;-144.73;100.00;54500.06;4993344;28;20126;-71
2023/04/17 00:57:25;;;;;;;53.63;28.27;;;;;;;-144.73;100.00;54469.28;5012697;28;20018;-70
2023/04/17 00:59:51;;;;;;;44.95;26.15;;;;;;;-144.73;100.00;54465.16;4994532;28;20026;-71
2023/04/17 01:02:17;;;;;;;50.25;26.05;;;;;;;-144.73;100.00;54506.22;4989435;28;20032;-71
2023/04/17 01:04:42;;;;;;;50.40;27.15;;;;;;;-144.73;100.00;54510.31;5007158;28;20496;-71
2023/04/17 01:07:08;;;;;;;50.53;27.17;;;;;;;-144.73;100.00;54456.97;5012299;28;20033;-71
2023/04/17 01:09:34;;;;;;;48.53;25.65;;;;;;;-144.73;100.00;54485.69;4987583;28;20026;-71
2023/04/17 01:12:22;;;;;;;52.30;25.92;;;;;;;-144.73;100.00;54502.13;5005839;28;20038;-70
2023/04/17 01:14:51;;;;;;;49.40;26.23;;;;;;;-144.73;100.00;54491.84;4999887;28;20158;-71
2023/04/17 01:17:18;;;;;;;54.08;27.73;;;;;;;-144.73;100.00;54502.13;5005637;28;20068;-72
2023/04/17 01:19:44;;;;;;;49.75;26.83;;;;;;;-144.73;100.00;54510.31;4987917;28;20038;-71
2023/04/17 01:22:09;;;;;;;53.70;26.13;;;;;;;-144.73;100.00;54506.22;4996383;28;20032;-71
2023/04/17 01:24:35;;;;;;;48.03;26.95;;;;;;;-144.73;100.00;54473.38;4987192;28;20019;-71
2023/04/17 01:27:02;;;;;;;49.85;27.85;;;;;;;-144.73;100.00;54524.69;5005319;28;20026;-71
2023/04/17 01:29:27;;;;;;;53.05;28.63;;;;;;;-144.73;100.00;54498.00;4994274;28;20018;-71
2023/04/17 01:31:52;;;;;;;52.90;28.25;;;;;;;-144.73;100.00;54510.31;5009980;28;20048;-71
2023/04/17 01:34:18;;;;;;;59.58;27.38;;;;;;;-144.73;100.00;54604.75;4993918;28;20026;-70
2023/04/17 01:36:43;;;;;;;63.47;32.03;;;;;;;-144.73;100.00;54500.06;4998662;28;20030;-71
2023/04/17 01:39:08;;;;;;;61.60;31.98;;;;;;;-144.73;100.00;54461.06;4990757;28;20026;-70
2023/04/17 01:41:35;;;;;;;54.47;28.17;;;;;;;-144.73;100.00;54502.13;4995001;28;20048;-71
2023/04/17 01:44:00;;;;;;;64.28;29.00;;;;;;;-144.73;100.00;54485.69;4990420;28;20031;-71
2023/04/17 01:46:26;;;;;;;51.50;29.83;;;;;;;-144.73;100.00;54440.53;4989978;28;20057;-71
2023/04/17 01:48:51;;;;;;;56.13;27.92;;;;;;;-144.73;100.00;54461.06;5004926;28;20527;-70
2023/04/17 01:51:16;;;;;;;58.38;28.85;;;;;;;-144.73;100.00;54473.38;5004714;28;20049;-70
2023/04/17 01:53:42;;;;;;;54.58;27.27;;;;;;;-144.73;100.00;54498.00;4988248;28;20059;-71
2023/04/17 01:56:07;;;;;;;57.85;29.25;;;;;;;-144.73;100.00;54473.38;5004766;28;20033;-71
2023/04/17 01:58:33;;;;;;;59.95;30.38;;;;;;;-144.73;100.00;54522.63;4993256;28;20036;-71
2023/04/17 02:00:58;;;;;;;51.65;29.38;;;;;;;-144.73;100.00;54463.13;5011407;28;20043;-71
2023/04/17 02:03:24;;;;;;;60.83;29.02;;;;;;;-144.73;100.00;54469.28;5011983;28;20029;-71
2023/04/17 02:05:50;;;;;;;57.03;29.98;;;;;;;-144.73;100.00;54485.69;4990954;28;20070;-71
2023/04/17 02:08:15;;;;;;;58.83;29.23;;;;;;;-144.73;100.00;54489.81;5011158;28;20053;-71
2023/04/17 02:10:41;;;;;;;55.15;29.35;;;;;;;-144.73;100.00;54506.22;5013322;28;20030;-71
2023/04/17 02:13:07;;;;;;;58.67;29.58;;;;;;;-144.73;100.00;54481.59;4998189;28;20024;-71
2023/04/17 02:15:32;;;;;;;56.40;28.02;;;;;;;-144.73;100.00;54498.00;5016048;28;20034;-71
2023/04/17 02:17:58;;;;;;;62.55;29.67;;;;;;;-144.73;100.00;54539.06;4992819;28;20112;-71
2023/04/17 02:20:23;;;;;;;63.85;32.50;;;;;;;-144.73;100.00;54510.31;5008648;28;20053;-71
2023/04/17 02:22:49;;;;;;;59.03;30.50;;;;;;;-144.73;100.00;54489.81;4991975;28;20079;-71
2023/04/17 02:25:14;;;;;;;61.75;30.33;;;;;;;-144.73;100.00;54510.31;5011679;28;20044;-70
2023/04/17 02:27:40;;;;;;;61.03;30.17;;;;;;;-144.73;100.00;54555.47;4990550;28;20192;-69
2023/04/17 02:30:06;;;;;;;54.97;27.70;;;;;;;-144.73;100.00;54473.38;5009216;28;20026;-70
2023/04/17 02:32:32;;;;;;;55.88;30.90;;;;;;;-144.73;100.00;54510.31;5008605;28;20064;-70
2023/04/17 02:34:57;;;;;;;58.25;28.33;;;;;;;-144.73;100.00;54485.69;4989986;28;20025;-70
2023/04/17 02:37:23;;;;;;;61.78;30.85;;;;;;;-144.73;100.00;54522.63;5010260;28;20018;-70
2023/04/17 02:39:48;;;;;;;52.10;31.00;;;;;;;-144.73;100.00;54465.16;5009749;28;20384;-70
2023/04/17 02:42:13;;;;;;;53.08;30.17;;;;;;;-144.73;100.00;54514.44;5020556;28;20500;-71
2023/04/17 02:44:39;;;;;;;58.38;31.75;;;;;;;-144.73;100.00;54514.44;5008042;28;20022;-70
2023/04/17 02:47:04;;;;;;;69.85;33.72;;;;;;;-144.73;100.00;54506.22;5010115;28;20030;-70
2023/04/17 02:49:30;;;;;;;65.57;31.13;;;;;;;-144.73;100.00;54481.59;4992644;28;20034;-70
2023/04/17 02:51:55;;;;;;;58.15;31.42;;;;;;;-144.73;100.00;54473.38;5020150;28;20036;-69
2023/04/17 02:54:21;;;;;;;54.95;30.60;;;;;;;-144.73;100.00;54539.06;4991101;28;20018;-70
2023/04/17 02:56:46;;;;;;;52.78;31.10;;;;;;;-144.73;100.00;54510.31;5009488;28;20435;-71
2023/04/17 02:59:12;;;;;;;64.53;32.70;;;;;;;-144.73;100.00;54528.81;5020316;28;20034;-70
2023/04/17 03:01:39;;;;;;;53.33;29.50;;;;;;;-144.73;100.00;54477.47;5010360;28;20038;-70
2023/04/17 03:04:05;;;;;;;60.42;32.45;;;;;;;-144.73;100.00;54485.69;4991134;28;20021;-70
2023/04/17 03:06:30;;;;;;;63.15;33.25;;;;;;;-144.73;100.00;54510.31;5006690;28;20034;-70
2023/04/17 03:08:56;;;;;;;67.18;36.05;;;;;;;-144.73;100.00;54524.69;4997103;28;20021;-70
2023/04/17 03:11:21;;;;;;;60.20;32.22;;;;;;;-144.73;100.00;54465.16;5015208;28;20038;-70
2023/04/17 03:13:47;;;;;;;63.40;35.78;;;;;;;-144.73;100.00;54491.84;5009245;28;20041;-70
2023/04/17 03:16:12;;;;;;;68.50;34.88;;;;;;;-144.73;100.00;54489.81;4990276;28;20485;-70
2023/04/17 03:18:39;;;;;;;63.17;35.40;;;;;;;-144.73;100.00;54604.75;4989819;28;20038;-70
2023/04/17 03:21:05;;;;;;;73.78;36.88;;;;;;;-144.73;100.00;54506.22;5011932;28;20033;-70
2023/04/17 03:23:30;;;;;;;63.58;33.40;;;;;;;-144.73;100.00;54473.38;4993014;28;20108;-70
2023/04/17 03:25:55;;;;;;;69.20;34.47;;;;;;;-144.73;100.00;54498.00;5007285;28;20030;-70
2023/04/17 03:28:22;;;;;;;67.80;34.40;;;;;;;-144.73;100.00;54465.16;5008582;28;20018;-71
2023/04/17 03:30:48;;;;;;;63.85;33.50;;;;;;;-144.73;100.00;54516.47;4990211;28;20053;-70
2023/04/17 03:33:15;;;;;;;62.13;34.45;;;;;;;-144.73;100.00;54518.53;4991372;28;20068;-70
2023/04/17 03:35:41;;;;;;;65.85;34.20;;;;;;;-144.73;100.00;54485.69;4992697;28;20034;-70
2023/04/17 03:38:07;;;;;;;69.10;36.65;;;;;;;-144.73;100.00;54524.69;5008599;28;20022;-70
2023/04/17 03:40:32;;;;;;;64.72;34.65;;;;;;;-144.73;100.00;54530.84;4990350;28;20037;-71
2023/04/17 03:42:57;;;;;;;68.35;38.13;;;;;;;-144.73;100.00;54473.38;4990127;28;20057;-72
2023/04/17 03:45:23;;;;;;;67.88;36.85;;;;;;;-144.73;100.00;54539.06;4985852;28;20149;-71
2023/04/17 03:47:48;;;;;;;73.35;37.55;;;;;;;-144.73;100.00;54481.59;5010407;28;20033;-71
2023/04/17 03:50:14;;;;;;;72.45;38.45;;;;;;;-144.73;100.00;54493.91;5012130;28;20030;-71
2023/04/17 03:52:39;;;;;;;80.07;41.70;;;;;;;-144.73;100.00;54481.59;4993146;28;20409;-71
2023/04/17 03:55:06;;;;;;;87.65;45.67;;;;;;;-144.73;100.00;54469.28;4995651;28;20034;-71
2023/04/17 03:57:31;;;;;;;76.15;42.15;;;;;;;-144.73;100.00;54481.59;4997341;28;20014;-71
2023/04/17 03:59:56;;;;;;;81.45;43.83;;;;;;;-144.73;100.00;54491.84;5002714;28;20025;-71
2023/04/17 04:02:22;;;;;;;85.00;48.22;;;;;;;-144.73;100.00;54514.44;5010209;28;20036;-71
2023/04/17 04:04:49;;;;;;;79.55;42.78;;;;;;;-144.73;100.00;54481.59;5003778;28;20025;-70
2023/04/17 04:07:14;;;;;;;92.93;49.58;;;;;;;-144.73;100.00;54518.53;4990817;28;20018;-70
2023/04/17 04:09:40;;;;;;;89.32;47.47;;;;;;;-144.73;100.00;54502.13;5014366;28;20028;-70
2023/04/17 04:12:05;;;;;;;93.97;48.88;;;;;;;-144.73;100.00;54489.81;5014266;28;20070;-70
2023/04/17 04:14:30;;;;;;;89.18;45.63;;;;;;;-144.73;100.00;54518.53;5010052;28;20026;-70
2023/04/17 04:16:56;;;;;;;91.68;49.90;;;;;;;-144.73;100.00;54510.31;4991687;28;20041;-70
2023/04/17 04:19:21;;;;;;;97.18;50.75;;;;;;;-144.73;100.00;54512.38;4990288;28;20034;-70
2023/04/17 04:21:46;;;;;;;92.15;48.13;;;;;;;-144.73;100.00;54512.38;4988565;28;20291;-70
2023/04/17 04:24:13;;;;;;;93.15;48.92;;;;;;;-144.73;100.00;54539.06;5007633;28;20030;-70
2023/04/17 04:26:42;;;;;;;98.50;46.55;;;;;;;-144.73;100.00;54559.59;5006377;28;20573;-70
2023/04/17 04:29:08;;;;;;;94.72;48.95;;;;;;;-144.73;100.00;54459.00;4988918;28;20021;-70
2023/04/17 04:31:34;;;;;;;98.15;47.00;;;;;;;-144.73;100.00;54524.69;4997991;28;20036;-70
2023/04/17 04:34:00;;;;;;;89.15;47.88;;;;;;;-144.73;100.00;54477.47;5006012;28;20049;-70
2023/04/17 04:36:28;;;;;;;109.18;50.00;;;;;;;-144.73;100.00;54555.47;5013030;28;20038;-70
2023/04/17 04:38:58;;;;;;;89.38;48.40;;;;;;;-144.73;100.00;54465.16;4990456;28;20014;-70
2023/04/17 04:41:25;;;;;;;105.28;49.92;;;;;;;-144.73;100.00;54481.59;4989255;28;20041;-70
2023/04/17 04:43:53;;;;;;;90.47;47.25;;;;;;;-144.73;100.00;54493.91;5006323;28;20041;-70
2023/04/17 04:46:18;;;;;;;95.22;47.42;;;;;;;-144.73;100.00;54518.53;5006007;28;20044;-70
2023/04/17 04:48:43;;;;;;;106.13;50.38;;;;;;;-144.73;100.00;54508.28;5006928;28;20078;-70
2023/04/17 04:51:09;;;;;;;101.28;55.88;;;;;;;-144.73;100.00;54520.59;5005375;28;20038;-70
2023/04/17 04:53:34;;;;;;;101.90;51.63;;;;;;;-144.73;100.00;54506.22;4989312;28;20026;-70
2023/04/17 04:56:00;;;;;;;94.45;49.17;;;;;;;-144.73;100.00;54502.13;5004358;28;20038;-71
2023/04/17 04:58:28;;;;;;;93.28;48.17;;;;;;;-144.73;100.00;54473.38;5009965;28;20018;-70
2023/04/17 05:00:54;;;;;;;96.72;47.67;;;;;;;-144.73;100.00;54514.44;4994100;28;20057;-70
2023/04/17 05:03:21;;;;;;;93.68;50.45;;;;;;;-144.73;100.00;54461.06;4989718;28;20032;-70
2023/04/17 05:05:46;;;;;;;92.85;49.75;;;;;;;-144.73;100.00;54465.16;5008707;28;20038;-70
2023/04/17 05:08:12;;;;;;;96.32;48.35;;;;;;;-144.73;100.00;54604.75;4993062;28;20532;-70
2023/04/17 05:10:38;;;;;;;85.00;46.47;;;;;;;-144.73;100.00;54479.53;4987686;28;20034;-71
2023/04/17 05:13:04;;;;;;;89.93;49.75;;;;;;;-144.73;100.00;54493.91;4989188;28;20026;-70
2023/04/17 05:15:29;;;;;;;89.15;47.25;;;;;;;-144.73;100.00;54493.91;5005953;28;20392;-71
2023/04/17 05:17:54;;;;;;;83.72;46.95;;;;;;;-144.73;100.00;54502.13;4989161;28;20025;-71
2023/04/17 05:20:20;;;;;;;75.45;44.97;;;;;;;-144.73;100.00;54502.13;4993301;28;20108;-71
2023/04/17 05:22:45;;;;;;;87.60;46.95;;;;;;;-144.73;100.00;54485.69;5011758;28;20049;-70
2023/04/17 05:25:11;;;;;;;90.03;46.47;;;;;;;-144.73;100.00;54493.91;4998998;28;20034;-70
2023/04/17 05:27:36;;;;;;;85.65;49.05;;;;;;;-144.73;100.00;54576.00;5022514;28;20046;-71
2023/04/17 05:30:02;;;;;;;92.00;49.45;;;;;;;-144.73;100.00;54547.28;4988388;28;20026;-70
2023/04/17 05:32:29;;;;;;;96.25;47.72;;;;;;;-144.73;100.00;54506.22;4988777;28;20195;-70
2023/04/17 05:34:55;;;;;;;98.35;51.03;;;;;;;-144.73;100.00;54473.38;5004340;28;20040;-70
2023/04/17 05:37:20;;;;;;;99.70;52.30;;;;;;;-144.73;100.00;54495.97;4989004;28;20101;-70
2023/04/17 05:39:46;;;;;;;98.88;48.35;;;;;;;-144.73;100.00;54506.22;4984363;28;20036;-69
2023/04/17 05:42:11;;;;;;;93.97;48.22;;;;;;;-144.73;100.00;54481.59;4984703;28;20470;-69
2023/04/17 05:44:36;;;;;;;89.38;48.65;;;;;;;-144.73;100.00;54485.69;5005022;28;20026;-69
2023/04/17 05:47:02;;;;;;;114.30;53.65;;;;;;;-144.73;100.00;54481.59;4986786;28;20045;-69
2023/04/17 05:49:28;;;;;;;91.38;47.35;;;;;;;-144.73;100.00;54514.44;4986869;28;20033;-69
2023/04/17 05:51:53;;;;;;;93.60;50.72;;;;;;;-144.73;100.00;54510.31;4987089;28;20042;-70
2023/04/17 05:54:19;;;;;;;94.93;47.88;;;;;;;-144.73;100.00;54539.06;5003395;28;20523;-71
2023/04/17 05:56:44;;;;;;;91.82;51.95;;;;;;;-144.73;100.00;54522.63;4987204;28;20053;-70
2023/04/17 05:59:09;;;;;;;99.13;49.63;;;;;;;-144.73;100.00;54498.00;4986741;28;20026;-68
2023/04/17 06:01:35;;;;;;;95.55;49.05;;;;;;;-144.73;100.00;54514.44;5002539;28;20068;-71
2023/04/17 06:04:01;;;;;;;94.22;50.30;;;;;;;-144.73;100.00;54508.28;4997379;28;20091;-69
2023/04/17 06:06:27;;;;;;;83.28;45.17;;;;;;;-144.73;100.00;54530.84;4986658;28;20037;-71
2023/04/17 06:08:53;;;;;;;87.00;47.13;;;;;;;-144.73;100.00;54477.47;4989367;28;20026;-70
2023/04/17 06:11:19;;;;;;;76.90;45.67;;;;;;;-144.73;100.00;54498.00;4986494;28;20038;-70
2023/04/17 06:13:45;;;;;;;83.72;44.50;;;;;;;-144.73;100.00;54498.00;4986841;28;20040;-70
2023/04/17 06:16:11;;;;;;;90.57;48.13;;;;;;;-144.73;100.00;54518.53;5005186;28;20034;-69
2023/04/17 06:18:37;;;;;;;84.00;45.55;;;;;;;-144.73;100.00;54518.53;4994301;28;20025;-69
2023/04/17 06:21:03;;;;;;;87.53;47.92;;;;;;;-144.73;100.00;54498.00;4996694;28;20038;-69
2023/04/17 06:23:28;;;;;;;79.85;46.08;;;;;;;-144.73;100.00;54498.00;5002028;28;20037;-70
2023/04/17 06:25:54;;;;;;;82.82;45.53;;;;;;;-144.73;100.00;54469.28;5004660;28;20056;-69
2023/04/17 06:28:19;;;;;;;84.93;46.83;;;;;;;-144.73;100.00;54506.22;4999602;28;20055;-69
2023/04/17 06:30:44;;;;;;;70.28;40.17;;;;;;;-144.73;100.00;54543.16;4992501;28;20075;-69
2023/04/17 06:33:10;;;;;;;76.85;39.58;;;;;;;-144.73;100.00;54502.13;5019576;28;20128;-70
2023/04/17 06:35:36;;;;;;;80.25;42.88;;;;;;;-144.73;100.00;54518.53;4997365;28;20042;-70
2023/04/17 06:38:02;;;;;;;76.50;40.70;;;;;;;-144.73;100.00;54516.47;4994058;28;20081;-70
2023/04/17 06:40:27;;;;;;;73.72;39.88;;;;;;;-144.73;100.00;54485.69;4997559;28;20045;-70
2023/04/17 06:42:52;;;;;;;71.82;38.80;;;;;;;-144.73;100.00;54514.44;5012442;28;20077;-70
2023/04/17 06:45:18;;;;;;;71.55;39.45;;;;;;;-144.73;100.00;54502.13;4989678;28;20531;-70
2023/04/17 06:47:45;;;;;;;69.63;38.13;;;;;;;-144.73;100.00;54506.22;5015723;28;20042;-70
2023/04/17 06:50:10;;;;;;;68.53;36.30;;;;;;;-144.73;100.00;54543.16;4984906;28;20481;-71
2023/04/17 06:52:35;;;;;;;64.25;35.97;;;;;;;-144.73;100.00;54485.69;4987538;28;20112;-70
2023/04/17 06:55:01;;;;;;;64.82;34.50;;;;;;;-144.73;100.00;54516.47;5004574;28;20018;-71
2023/04/17 06:57:26;;;;;;;65.45;34.97;;;;;;;-144.73;100.00;54520.59;4986183;28;20084;-70
2023/04/17 06:59:51;;;;;;;68.45;36.42;;;;;;;-144.73;100.00;54465.16;5005465;28;20081;-71
2023/04/17 07:02:17;;;;;;;69.35;36.53;;;;;;;-144.73;100.00;54518.53;4990522;28;20026;-70
2023/04/17 07:04:42;;;;;;;52.88;32.20;;;;;;;-144.73;100.00;54539.06;4991473;28;20033;-70
2023/04/17 07:07:08;;;;;;;58.75;33.92;;;;;;;-144.73;100.00;54516.47;5005205;28;20048;-70
2023/04/17 07:09:33;;;;;;;56.70;32.35;;;;;;;-144.73;100.00;54518.53;4994752;28;20030;-70
2023/04/17 07:11:58;;;;;;;56.55;31.13;;;;;;;-144.73;100.00;54514.44;4992456;28;20045;-71
2023/04/17 07:14:23;;;;;;;52.67;31.55;;;;;;;-144.73;100.00;54516.47;5017304;28;20497;-70
2023/04/17 07:16:49;;;;;;;51.70;30.45;;;;;;;-144.73;100.00;54473.38;4995447;28;20038;-70
2023/04/17 07:19:15;;;;;;;50.42;29.25;;;;;;;-144.73;100.00;54510.31;5010393;28;20034;-70
2023/04/17 07:21:40;;;;;;;58.22;31.10;;;;;;;-144.73;100.00;54500.06;4989386;28;20030;-70
2023/04/17 07:24:06;;;;;;;53.58;30.58;;;;;;;-144.73;100.00;54514.44;4991214;28;20014;-70
2023/04/17 07:26:31;;;;;;;57.83;32.33;;;;;;;-144.73;100.00;54526.75;4990114;28;20060;-70
2023/04/17 07:28:56;;;;;;;53.95;31.40;;;;;;;-144.73;100.00;54500.06;4998284;28;20086;-71
2023/04/17 07:31:22;;;;;;;50.50;28.90;;;;;;;-144.73;100.00;54510.31;5009396;28;20039;-70
2023/04/17 07:33:48;;;;;;;48.05;29.73;;;;;;;-144.73;100.00;54539.06;5018864;28;20040;-70
2023/04/17 07:36:13;;;;;;;46.72;26.63;;;;;;;-144.73;100.00;54539.06;5020290;28;20120;-71
2023/04/17 07:38:40;;;;;;;44.75;28.85;;;;;;;-144.73;100.00;54504.16;5002277;28;20044;-70
2023/04/17 07:41:05;;;;;;;46.45;25.83;;;;;;;-144.73;99.24;54454.91;4999268;28;20040;-70
2023/04/17 07:43:30;;;;;;;45.17;27.27;;;;;;;-144.73;99.51;54456.97;5020623;28;20034;-71
2023/04/17 07:45:57;;;;;;;46.03;27.73;;;;;;;-144.73;99.08;54481.59;5015059;28;20042;-70
2023/04/17 07:48:23;;;;;;;43.83;25.88;;;;;;;-144.73;97.05;54514.44;4990287;28;20033;-69
2023/04/17 07:50:50;;;;;;;41.75;25.70;;;;;;;-144.73;95.35;54477.47;4991132;28;20072;-69
2023/04/17 07:53:17;;;;;;;46.70;25.05;;;;;;;-144.73;95.97;54502.13;4997896;28;20058;-69
2023/04/17 07:55:42;;;;;;;41.30;24.17;;;;;;;-144.73;95.17;54485.69;5002139;28;20059;-69
2023/04/17 07:58:08;;;;;;;48.20;25.08;;;;;;;-144.73;94.89;54477.47;4993123;28;20125;-69
2023/04/17 08:00:33;;;;;;;49.22;25.73;;;;;;;-144.73;94.82;54475.44;5005722;28;20046;-69
2023/04/17 08:03:00;;;;;;;42.88;25.25;;;;;;;-144.73;93.72;54481.59;4988923;28;20045;-69
2023/04/17 08:05:26;;;;;;;47.83;24.73;;;;;;;-144.73;94.11;54489.81;4988671;28;20042;-69
2023/04/17 08:07:51;;;;;;;37.50;22.58;;;;;;;-144.73;94.51;54465.16;5021675;28;20021;-69
2023/04/17 08:10:16;;;;;;;39.90;22.65;;;;;;;-144.73;92.64;54498.00;5005324;28;20117;-69
2023/04/17 08:12:42;;;;;;;40.97;23.15;;;;;;;-144.73;91.33;54473.38;4988433;28;20045;-71
2023/04/17 08:15:08;;;;;;;41.25;21.95;;;;;;;-144.73;91.52;54461.06;5005028;28;20022;-71
2023/04/17 08:17:33;;;;;;;36.70;21.33;;;;;;;-144.73;88.36;54477.47;4990944;28;20022;-71
2023/04/17 08:20:01;;;;;;;38.03;20.17;;;;;;;-144.73;87.69;54467.22;5010838;28;20033;-71
2023/04/17 08:22:27;;;;;;;33.22;21.65;;;;;;;-144.73;88.25;54493.91;4999519;28;20040;-70
2023/04/17 08:24:56;;;;;;;33.08;20.98;;;;;;;-144.73;87.98;54461.06;4995339;28;20021;-69
2023/04/17 08:27:22;;;;;;;33.53;18.90;;;;;;;-144.73;86.33;54489.81;5009514;28;20025;-69
2023/04/17 08:29:48;;;;;;;33.67;18.70;;;;;;;-144.73;86.09;54493.91;4987195;28;20030;-68
2023/04/17 08:32:13;;;;;;;32.47;19.83;;;;;;;-144.73;83.03;54487.75;5006810;28;20041;-69
2023/04/17 08:34:38;;;;;;;34.78;18.73;;;;;;;-144.73;80.63;54473.38;4988066;28;20385;-69
2023/04/17 08:37:04;;;;;;;31.42;15.55;;;;;;;-144.73;73.89;54440.53;4987626;28;20026;-69
2023/04/17 08:39:29;;;;;;;27.30;13.65;;;;;;;-144.73;71.70;54448.75;5005781;28;20030;-69
2023/04/17 08:41:59;;;;;;;32.17;14.43;;;;;;;-144.73;68.02;54487.75;5003859;28;20053;-71
2023/04/17 08:44:25;;;;;;;25.13;12.88;;;;;;;-144.73;66.76;54493.91;4988902;28;20037;-68
2023/04/17 08:46:51;;;;;;;22.00;12.35;;;;;;;-144.73;64.25;54469.28;5005826;28;20037;-69
2023/04/17 08:49:17;;;;;;;20.27;10.05;;;;;;;-144.73;61.86;54481.59;4989699;28;20045;-69
2023/04/17 08:51:43;;;;;;;22.48;11.85;;;;;;;-144.73;62.48;54448.75;5009910;28;20119;-68
2023/04/17 08:54:08;;;;;;;19.17;11.02;;;;;;;-144.73;62.37;54440.53;5003896;28;20044;-69
2023/04/17 08:56:34;;;;;;;18.77;11.77;;;;;;;-144.73;63.38;54465.16;4989702;28;20109;-69
2023/04/17 08:58:59;;;;;;;23.80;13.80;;;;;;;-144.73;64.75;54448.75;5003871;28;20022;-69
2023/04/17 09:01:24;;;;;;;28.25;14.90;;;;;;;-144.73;65.83;54463.13;5001787;28;20573;-69
2023/04/17 09:03:50;;;;;;;27.63;15.77;;;;;;;-144.73;67.00;54448.75;5003747;28;20113;-69
2023/04/17 09:06:16;;;;;;;28.75;14.90;;;;;;;-144.73;69.09;54424.13;4989891;28;20026;-69
2023/04/17 09:09:02;;;;;;;25.05;13.80;;;;;;;-144.73;67.68;54473.38;5004135;28;20064;-69
2023/04/17 09:11:29;;;;;;;24.05;14.10;;;;;;;-144.73;67.45;54477.47;4993968;28;20037;-70
2023/04/17 09:13:54;;;;;;;23.77;14.15;;;;;;;-144.73;66.75;54465.16;5006372;28;20028;-69
2023/04/17 09:16:20;;;;;;;32.35;14.20;;;;;;;-144.73;68.32;54461.06;4987212;28;20030;-69
2023/04/17 09:18:47;;;;;;;25.02;13.70;;;;;;;-144.73;66.57;54428.22;4984622;28;20121;-70
2023/04/17 09:21:17;;;;;;;23.10;14.32;;;;;;;-144.73;66.45;54473.38;5005750;28;20037;-71
2023/04/17 09:23:51;;;;;;;28.45;14.00;;;;;;;-144.73;65.29;54444.66;5002156;28;20030;-71
2023/04/17 09:26:19;;;;;;;24.95;12.18;;;;;;;-144.73;64.69;54440.53;5000480;28;20042;-70
2023/04/17 09:29:10;;;;;;;21.02;12.27;;;;;;;-144.73;64.26;54424.13;4988610;28;20484;-70
2023/04/17 09:31:37;;;;;;;22.42;12.57;;;;;;;-144.73;63.21;54461.06;4985414;28;20074;-70
2023/04/17 09:34:10;;;;;;;28.50;12.18;;;;;;;-144.73;64.49;54481.59;4988314;28;20081;-70
2023/04/17 09:36:37;;;;;;;21.25;13.45;;;;;;;-144.73;64.92;54440.53;5003997;28;20026;-70
2023/04/17 09:39:15;;;;;;;22.58;13.85;;;;;;;-144.73;64.58;54444.66;4986548;28;20104;-70
2023/04/17 09:41:41;;;;;;;22.33;14.05;;;;;;;-144.73;63.50;54450.81;5000580;28;20108;-70
2023/04/17 09:44:06;;;;;;;27.52;13.63;;;;;;;-144.73;63.53;54461.06;4988310;28;20025;-70
2023/04/17 09:46:41;;;;;;;23.67;14.90;;;;;;;-144.73;64.80;54465.16;4987673;28;20144;-70
2023/04/17 09:49:18;;;;;;;24.90;13.45;;;;;;;-144.73;63.49;54461.06;5004366;28;20026;-71
2023/04/17 09:51:45;;;;;;;31.05;14.80;;;;;;;-144.73;65.71;54475.44;5019450;28;20053;-70
2023/04/17 09:54:11;;;;;;;21.65;13.70;;;;;;;-144.73;65.04;54465.16;5005441;28;20029;-70
2023/04/17 09:56:36;;;;;;;22.45;14.00;;;;;;;-144.73;65.41;54448.75;5004403;28;20030;-71
2023/04/17 09:59:06;;;;;;;22.88;14.40;;;;;;;-144.73;66.04;54469.28;5008331;28;20021;-71
2023/04/17 10:01:33;;;;;;;22.42;13.73;;;;;;;-144.73;65.62;54465.16;5007240;28;20465;-70
2023/04/17 10:03:59;;;;;;;28.00;13.98;;;;;;;-144.73;66.01;54444.66;5017453;28;20060;-71
2023/04/17 10:06:28;;;;;;;29.63;15.73;;;;;;;-144.73;67.14;54465.16;5011881;28;20038;-70
2023/04/17 10:08:54;;;;;;;30.02;14.38;;;;;;;-144.73;65.42;54487.75;5012463;28;20384;-70
2023/04/17 10:11:22;;;;;;;26.75;14.45;;;;;;;-144.73;66.25;54424.13;4989743;28;20041;-70
2023/04/17 10:13:57;;;;;;;59.15;17.20;;;;;;;-144.73;65.51;54440.53;5003567;28;20120;-70
2023/04/17 10:16:36;;;;;;;31.65;15.18;;;;;;;-144.73;63.51;54432.31;5013976;28;20867;-70
2023/04/17 10:19:31;;;;;;;31.75;15.10;;;;;;;-144.73;61.42;54440.53;5012395;28;20026;-70
2023/04/17 10:22:15;;;;;;;24.83;14.70;;;;;;;-144.73;63.48;54452.84;4999783;28;20083;-70
2023/04/17 10:24:41;;;;;;;32.67;16.45;;;;;;;-144.73;64.39;54442.59;4991264;28;20029;-70
2023/04/17 10:27:41;;;;;;;29.10;16.95;;;;;;;-144.73;64.68;54452.84;5007834;28;20409;-70
2023/04/17 10:30:11;;;;;;;30.08;16.00;;;;;;;-144.73;63.48;54456.97;4985369;28;20687;-69
2023/04/17 10:32:38;;;;;;;26.05;15.63;;;;;;;-144.73;65.73;54444.66;4987463;28;20041;-70
2023/04/17 10:35:15;;;;;;;26.33;14.30;;;;;;;-144.73;63.78;54483.66;5006197;28;20130;-69
2023/04/17 10:37:50;;;;;;;35.17;14.95;;;;;;;-144.73;64.70;54448.75;4995005;28;20089;-70
2023/04/17 10:40:28;;;;;;;30.80;16.15;;;;;;;-144.73;63.58;54428.22;4997246;28;20092;-71
2023/04/17 10:43:13;;;;;;;28.35;15.10;;;;;;;-144.73;62.11;54465.16;4995113;28;20076;-70
2023/04/17 10:46:02;;;;;;;29.63;14.43;;;;;;;-144.73;60.66;54411.81;5007912;28;20037;-71
2023/04/17 10:48:49;;;;;;;31.38;15.00;;;;;;;-144.73;59.60;54436.44;4992864;28;20030;-71
2023/04/17 10:51:20;;;;;;;31.00;17.20;;;;;;;-144.73;60.02;54444.66;5009780;28;20041;-69
2023/04/17 10:53:47;;;;;;;;;;;;;;;-144.73;58.16;54461.06;4996902;28;20030;-71
2023/04/17 10:56:33;;;;;;;29.35;14.48;;;;;;;-144.73;56.51;54391.28;5035044;28;19944;-72